Terminal Aerodrome Forecast
Issued by NWS Mt. Holly, NJ

Home | Current Version | Previous Version | Text Only | Print | Product List | Glossary On
Versions: 1 2 3 4 5 6 7 8 9 10 11 12 13 14 15 16 17 18 19 20 21 22
845
FTUS41 KPHI 301728
TAFILG
TAF
KILG 301728Z 3018/3118 14006KT P6SM OVC100
     FM302300 12008KT P6SM BKN050 OVC090
     FM310800 10008KT 5SM -RA BR BKN015 OVC025
     FM311200 10011KT 4SM RA BR SCT003 OVC008
     FM311500 10013KT 2SM RA BR OVC003=

USA.gov is the U.S. government's official web portal to all federal, state and local government web resources and services.